Terminal Aerodrome Forecast
Issued by NWS Missoula, MT

Home | Current Version | Previous Version | Text Only | Print | Product List | Glossary On
Versions: 1 2 3 4 5 6 7 8 9 10 11 12 13
000
FTUS45 KMSO 051720
TAFBTM
TAF
KBTM 051720Z 0518/0618 08005KT P6SM BKN150
     FM052000 31008KT P6SM VCSH BKN100
     FM052200 31012KT P6SM -TSRA BKN080CB
     FM060000 32008KT P6SM VCSH BKN100=

USA.gov is the U.S. government's official web portal to all federal, state and local government web resources and services.